aviador You're here:

PABI Decoded Metar

DELTA JUNCTION in AK, USA
Report Time2017-10-19 20:53:00
UTC Time2017-10-19 21:59:03
Flight Rules mvfr MVFR
Wind300° at 12 kt
W.Decomp.*RWY 28: 12.0 kt HW 0.6 kt LCW
RWY 25: 10.7 kt HW 5.4 kt RCW
RWY 19: 0.6 kt HW 12.0 kt RCW
W.Rank300° ranks 15
Current wind is above 300° avg. (7.0)
Visibility9999 m
Phenomena:N/A
Clouds:Broken 015 Hf
Broken 040 Hf
Overcast 080 Hf
Expected CloudBase > 800 ft AGL from Temp-Dew spread
Ceiling1,500 ft
Temp-7°C (ISA -19)
Dew Point-9°C (86% RH)
AAT-14.3°C
QNH993 hPa
Density Alt-407 ft
Elevation1,266 ft
Report Wrong Elevation
Raw Report
PABI 192053Z 30012KT 10SM BKN015 BKN040 OVC080 M07/M09 A2932=

Extra information for PABI:More info

Metar Taf Metar & Taf Last 4 Metars F.Rules Stats Wind Profile Meteogram Temp Stats Airport Information Weather charts Add Link Nearby VenuesMetar ALERT Operation Metar Decoded Social comments

AIRNAV info for PABI